Terminal Aerodrome Forecast
Issued by NWS

Home | Current Version | Previous Version | Text Only | Print | Product List | Glossary On
Versions: 1 2 3 4 5 6 7 8 9 10 11 12 13 14 15 16 17 18 19
000
FTUS42 KGSP 241700
TAFAND
TAF
KAND 241734Z 2418/2518 26010KT P6SM VCTS SCT045CB
      TEMPO 2419/2422 VRB12G22KT 4SM TSRA OVC020CB
     FM242200 26007KT P6SM BKN045
     FM250400 25003KT P6SM SCT250
     FM250800 00000KT 5SM BR FEW250
     FM251100 00000KT 3SM BR SCT250
     FM251300 00000KT P6SM SCT250=

USA.gov is the U.S. government's official web portal to all federal, state and local government web resources and services.